Concord Regional Airport


Codes: KJQF/
Name: Concord Regional Airport
City: Concord
Country: United States
Elevation: 705 ft.
Wikipedia:

Photos at Concord Regional Airport


   Photos courtesy of SpottingLog. You can add your own sightings and photos by signing up for a free trial today.



No photos found.

Weather at Concord Regional Airport


Time (UTC)DescriptionTempratureWindCloud coverageVisibilityPressureHumidity
18-Apr-2024 00:00Overcast Clouds24°C11 mph, SW100%10000m1015hPa61%
18-Apr-2024 03:00Overcast Clouds21°C7 mph, SW100%10000m1016hPa71%
18-Apr-2024 06:00Overcast Clouds18°C9 mph, W100%10000m1016hPa73%
18-Apr-2024 09:00Broken Clouds15°C4 mph, W69%10000m1017hPa75%
18-Apr-2024 12:00Scattered Clouds17°C2 mph, NW35%10000m1018hPa73%
18-Apr-2024 15:00Clear Sky24°C4 mph, NW0%10000m1018hPa53%
18-Apr-2024 18:00Clear Sky28°C4 mph, N0%10000m1017hPa38%
18-Apr-2024 21:00Clear Sky28°C4 mph, N0%10000m1015hPa37%
19-Apr-2024 00:00Clear Sky23°C4 mph, SE0%10000m1016hPa60%
19-Apr-2024 03:00Clear Sky20°C4 mph, SE2%10000m1016hPa64%
19-Apr-2024 06:00Clear Sky18°C2 mph, SE9%10000m1016hPa69%
19-Apr-2024 09:00Broken Clouds17°C2 mph, NE61%10000m1016hPa72%
19-Apr-2024 12:00Broken Clouds18°C2 mph, SE73%10000m1016hPa75%
19-Apr-2024 15:00Overcast Clouds19°C7 mph, NW100%10000m1017hPa77%
19-Apr-2024 18:00Overcast Clouds25°C2 mph, W100%10000m1015hPa56%
19-Apr-2024 21:00Broken Clouds27°C4 mph, W66%10000m1012hPa47%
20-Apr-2024 00:00Scattered Clouds22°C2 mph, N37%10000m1013hPa70%
20-Apr-2024 03:00Light Rain19°C4 mph, NE98%10000m1015hPa91%
20-Apr-2024 06:00Overcast Clouds17°C9 mph, NE99%10000m1016hPa86%
20-Apr-2024 09:00Overcast Clouds15°C7 mph, N97%10000m1016hPa85%
20-Apr-2024 12:00Overcast Clouds16°C9 mph, N99%10000m1016hPa73%
20-Apr-2024 15:00Overcast Clouds17°C7 mph, NE100%10000m1017hPa68%
20-Apr-2024 18:00Overcast Clouds18°C7 mph, NE100%10000m1017hPa68%
20-Apr-2024 21:00Overcast Clouds17°C2 mph, NE100%10000m1016hPa75%
21-Apr-2024 00:00Overcast Clouds15°C2 mph, N85%10000m1016hPa82%
21-Apr-2024 03:00Scattered Clouds15°C9 mph, N41%10000m1018hPa73%
21-Apr-2024 06:00Broken Clouds13°C9 mph, NE70%10000m1019hPa60%
21-Apr-2024 09:00Overcast Clouds12°C7 mph, NE100%10000m1019hPa60%
21-Apr-2024 12:00Overcast Clouds12°C7 mph, NE100%10000m1020hPa60%
21-Apr-2024 15:00Overcast Clouds14°C7 mph, E100%10000m1020hPa52%
21-Apr-2024 18:00Light Rain12°C2 mph, E100%10000m1019hPa78%
21-Apr-2024 21:00Moderate Rain10°C2 mph, NE100%6166m1017hPa94%
22-Apr-2024 00:00Moderate Rain10°C2 mph, NE100%7407m1017hPa97%
22-Apr-2024 03:00Light Rain10°C2 mph, NE100%10000m1017hPa97%
22-Apr-2024 06:00Overcast Clouds10°C4 mph, N100%10000m1016hPa97%
22-Apr-2024 09:00Overcast Clouds10°C4 mph, N100%10000m1016hPa92%
22-Apr-2024 12:00Overcast Clouds9°C7 mph, NE100%10000m1017hPa87%
22-Apr-2024 15:00Overcast Clouds12°C9 mph, NE96%10000m1018hPa79%
22-Apr-2024 18:00Overcast Clouds12°C7 mph, NE98%10000m1017hPa70%
22-Apr-2024 21:00Light Rain9°C9 mph, NW100%6946m1017hPa95%